sensor_id;sensor_type;location;lat;lon;timestamp;P1;durP1;ratioP1;P2;durP2;ratioP2
2622;SDS011;1321;48.690;9.022;2023-03-14T00:01:35;15.13;;;14.77;;
2622;SDS011;1321;48.690;9.022;2023-03-14T00:04:03;15.23;;;14.83;;
2622;SDS011;1321;48.690;9.022;2023-03-14T00:06:32;15.10;;;14.80;;
2622;SDS011;1321;48.690;9.022;2023-03-14T00:09:00;15.37;;;14.97;;
2622;SDS011;1321;48.690;9.022;2023-03-14T00:11:28;15.20;;;14.80;;
2622;SDS011;1321;48.690;9.022;2023-03-14T00:13:57;15.00;;;14.60;;
2622;SDS011;1321;48.690;9.022;2023-03-14T00:16:27;15.00;;;14.60;;
2622;SDS011;1321;48.690;9.022;2023-03-14T00:18:55;14.90;;;14.60;;
2622;SDS011;1321;48.690;9.022;2023-03-14T00:21:23;15.10;;;14.80;;
2622;SDS011;1321;48.690;9.022;2023-03-14T00:23:51;15.17;;;14.77;;
2622;SDS011;1321;48.690;9.022;2023-03-14T00:26:20;15.33;;;14.93;;
2622;SDS011;1321;48.690;9.022;2023-03-14T00:28:51;15.33;;;14.93;;
2622;SDS011;1321;48.690;9.022;2023-03-14T00:31:20;15.00;;;14.70;;
2622;SDS011;1321;48.690;9.022;2023-03-14T00:33:51;15.20;;;14.80;;
2622;SDS011;1321;48.690;9.022;2023-03-14T00:36:19;15.10;;;14.80;;
2622;SDS011;1321;48.690;9.022;2023-03-14T00:38:49;15.40;;;14.90;;
2622;SDS011;1321;48.690;9.022;2023-03-14T00:41:19;14.90;;;14.50;;
2622;SDS011;1321;48.690;9.022;2023-03-14T00:43:49;14.80;;;14.50;;
2622;SDS011;1321;48.690;9.022;2023-03-14T00:46:17;14.97;;;14.63;;
2622;SDS011;1321;48.690;9.022;2023-03-14T00:48:46;15.17;;;14.67;;
2622;SDS011;1321;48.690;9.022;2023-03-14T00:51:15;15.10;;;14.70;;
2622;SDS011;1321;48.690;9.022;2023-03-14T00:53:43;15.00;;;14.70;;
2622;SDS011;1321;48.690;9.022;2023-03-14T00:56:12;15.03;;;14.70;;
2622;SDS011;1321;48.690;9.022;2023-03-14T00:58:41;14.80;;;14.50;;
2622;SDS011;1321;48.690;9.022;2023-03-14T01:01:10;15.00;;;14.70;;
2622;SDS011;1321;48.690;9.022;2023-03-14T01:03:40;14.77;;;14.40;;
2622;SDS011;1321;48.690;9.022;2023-03-14T01:06:10;14.97;;;14.67;;
2622;SDS011;1321;48.690;9.022;2023-03-14T01:08:40;15.20;;;14.80;;
2622;SDS011;1321;48.690;9.022;2023-03-14T01:11:10;14.80;;;14.40;;
2622;SDS011;1321;48.690;9.022;2023-03-14T01:13:39;15.07;;;14.77;;
2622;SDS011;1321;48.690;9.022;2023-03-14T01:16:08;14.83;;;14.43;;
2622;SDS011;1321;48.690;9.022;2023-03-14T01:18:38;15.37;;;14.97;;
2622;SDS011;1321;48.690;9.022;2023-03-14T01:21:10;14.80;;;14.40;;
2622;SDS011;1321;48.690;9.022;2023-03-14T01:23:41;14.83;;;14.47;;
2622;SDS011;1321;48.690;9.022;2023-03-14T01:26:10;14.80;;;14.50;;
2622;SDS011;1321;48.690;9.022;2023-03-14T01:28:39;14.73;;;14.43;;
2622;SDS011;1321;48.690;9.022;2023-03-14T01:31:08;14.77;;;14.47;;
2622;SDS011;1321;48.690;9.022;2023-03-14T01:33:37;14.60;;;14.30;;
2622;SDS011;1321;48.690;9.022;2023-03-14T01:36:07;14.87;;;14.50;;
2622;SDS011;1321;48.690;9.022;2023-03-14T01:38:36;14.90;;;14.60;;
2622;SDS011;1321;48.690;9.022;2023-03-14T01:41:08;15.10;;;14.70;;
2622;SDS011;1321;48.690;9.022;2023-03-14T01:43:39;14.77;;;14.47;;
2622;SDS011;1321;48.690;9.022;2023-03-14T01:46:18;15.00;;;14.60;;
2622;SDS011;1321;48.690;9.022;2023-03-14T01:49:13;14.97;;;14.57;;
2622;SDS011;1321;48.690;9.022;2023-03-14T01:51:48;15.93;;;15.43;;
2622;SDS011;1321;48.690;9.022;2023-03-14T01:54:20;14.70;;;14.40;;
2622;SDS011;1321;48.690;9.022;2023-03-14T01:56:54;14.70;;;14.40;;
2622;SDS011;1321;48.690;9.022;2023-03-14T01:59:25;15.23;;;14.70;;
2622;SDS011;1321;48.690;9.022;2023-03-14T02:01:55;14.97;;;14.57;;
2622;SDS011;1321;48.690;9.022;2023-03-14T02:04:23;15.20;;;14.80;;
2622;SDS011;1321;48.690;9.022;2023-03-14T02:06:58;15.40;;;14.93;;
2622;SDS011;1321;48.690;9.022;2023-03-14T02:09:30;15.13;;;14.53;;
2622;SDS011;1321;48.690;9.022;2023-03-14T02:12:00;15.30;;;14.90;;
2622;SDS011;1321;48.690;9.022;2023-03-14T02:14:29;15.77;;;15.37;;
2622;SDS011;1321;48.690;9.022;2023-03-14T02:17:00;15.30;;;14.80;;
2622;SDS011;1321;48.690;9.022;2023-03-14T02:19:35;15.20;;;14.77;;
2622;SDS011;1321;48.690;9.022;2023-03-14T02:22:15;14.40;;;14.10;;
2622;SDS011;1321;48.690;9.022;2023-03-14T02:24:46;14.53;;;14.23;;
2622;SDS011;1321;48.690;9.022;2023-03-14T02:27:22;14.60;;;14.30;;
2622;SDS011;1321;48.690;9.022;2023-03-14T02:29:51;14.70;;;14.40;;
2622;SDS011;1321;48.690;9.022;2023-03-14T02:32:21;14.90;;;14.50;;
2622;SDS011;1321;48.690;9.022;2023-03-14T02:34:52;14.50;;;14.20;;
2622;SDS011;1321;48.690;9.022;2023-03-14T02:37:25;14.80;;;14.30;;
2622;SDS011;1321;48.690;9.022;2023-03-14T02:39:59;14.70;;;14.40;;
2622;SDS011;1321;48.690;9.022;2023-03-14T02:42:28;14.80;;;14.40;;
2622;SDS011;1321;48.690;9.022;2023-03-14T02:44:59;14.50;;;14.20;;
2622;SDS011;1321;48.690;9.022;2023-03-14T02:47:49;14.60;;;14.30;;
2622;SDS011;1321;48.690;9.022;2023-03-14T02:50:22;14.90;;;14.40;;
2622;SDS011;1321;48.690;9.022;2023-03-14T02:52:53;14.30;;;14.00;;
2622;SDS011;1321;48.690;9.022;2023-03-14T02:55:22;14.70;;;14.30;;
2622;SDS011;1321;48.690;9.022;2023-03-14T02:57:53;14.60;;;14.20;;
2622;SDS011;1321;48.690;9.022;2023-03-14T03:00:21;14.40;;;14.10;;
2622;SDS011;1321;48.690;9.022;2023-03-14T03:02:49;14.90;;;14.50;;
2622;SDS011;1321;48.690;9.022;2023-03-14T03:05:18;14.30;;;14.00;;
2622;SDS011;1321;48.690;9.022;2023-03-14T03:07:46;14.30;;;13.90;;
2622;SDS011;1321;48.690;9.022;2023-03-14T03:10:14;14.47;;;14.07;;
2622;SDS011;1321;48.690;9.022;2023-03-14T03:12:42;14.43;;;14.03;;
2622;SDS011;1321;48.690;9.022;2023-03-14T03:15:12;14.20;;;13.80;;
2622;SDS011;1321;48.690;9.022;2023-03-14T03:17:40;14.73;;;14.33;;
2622;SDS011;1321;48.690;9.022;2023-03-14T03:20:09;15.10;;;14.47;;
2622;SDS011;1321;48.690;9.022;2023-03-14T03:22:38;14.33;;;13.90;;
2622;SDS011;1321;48.690;9.022;2023-03-14T03:25:07;14.90;;;14.50;;
2622;SDS011;1321;48.690;9.022;2023-03-14T03:27:37;14.63;;;14.33;;
2622;SDS011;1321;48.690;9.022;2023-03-14T03:30:05;14.80;;;14.40;;
2622;SDS011;1321;48.690;9.022;2023-03-14T03:32:37;14.80;;;14.40;;
2622;SDS011;1321;48.690;9.022;2023-03-14T03:35:05;14.93;;;14.40;;
2622;SDS011;1321;48.690;9.022;2023-03-14T03:37:34;14.10;;;13.80;;
2622;SDS011;1321;48.690;9.022;2023-03-14T03:40:02;14.90;;;14.40;;
2622;SDS011;1321;48.690;9.022;2023-03-14T03:42:32;15.07;;;14.47;;
2622;SDS011;1321;48.690;9.022;2023-03-14T03:45:01;14.70;;;14.20;;
2622;SDS011;1321;48.690;9.022;2023-03-14T03:47:30;14.43;;;14.13;;
2622;SDS011;1321;48.690;9.022;2023-03-14T03:50:00;14.10;;;13.70;;
2622;SDS011;1321;48.690;9.022;2023-03-14T03:52:28;14.43;;;14.00;;
2622;SDS011;1321;48.690;9.022;2023-03-14T03:54:57;14.70;;;14.00;;
2622;SDS011;1321;48.690;9.022;2023-03-14T03:57:25;14.60;;;14.20;;
2622;SDS011;1321;48.690;9.022;2023-03-14T03:59:53;14.50;;;14.00;;
2622;SDS011;1321;48.690;9.022;2023-03-14T04:02:21;14.23;;;13.83;;
2622;SDS011;1321;48.690;9.022;2023-03-14T04:04:49;14.70;;;14.20;;
2622;SDS011;1321;48.690;9.022;2023-03-14T04:07:19;14.20;;;13.70;;
2622;SDS011;1321;48.690;9.022;2023-03-14T04:09:47;14.00;;;13.60;;
2622;SDS011;1321;48.690;9.022;2023-03-14T04:12:15;14.60;;;14.20;;
2622;SDS011;1321;48.690;9.022;2023-03-14T04:14:43;14.20;;;13.73;;
2622;SDS011;1321;48.690;9.022;2023-03-14T04:17:12;14.70;;;14.00;;
2622;SDS011;1321;48.690;9.022;2023-03-14T04:19:40;14.50;;;14.10;;
2622;SDS011;1321;48.690;9.022;2023-03-14T04:22:08;14.67;;;14.03;;
2622;SDS011;1321;48.690;9.022;2023-03-14T04:24:38;14.20;;;13.80;;
2622;SDS011;1321;48.690;9.022;2023-03-14T04:27:06;14.50;;;14.00;;
2622;SDS011;1321;48.690;9.022;2023-03-14T04:29:34;14.37;;;13.90;;
2622;SDS011;1321;48.690;9.022;2023-03-14T04:32:02;14.60;;;14.00;;
2622;SDS011;1321;48.690;9.022;2023-03-14T04:34:30;14.70;;;14.17;;
2622;SDS011;1321;48.690;9.022;2023-03-14T04:36:59;14.87;;;14.00;;
2622;SDS011;1321;48.690;9.022;2023-03-14T04:39:27;14.07;;;13.67;;
2622;SDS011;1321;48.690;9.022;2023-03-14T04:41:56;14.47;;;13.97;;
2622;SDS011;1321;48.690;9.022;2023-03-14T04:44:24;14.20;;;13.70;;
2622;SDS011;1321;48.690;9.022;2023-03-14T04:46:53;14.43;;;13.80;;
2622;SDS011;1321;48.690;9.022;2023-03-14T04:49:21;15.13;;;14.37;;
2622;SDS011;1321;48.690;9.022;2023-03-14T04:51:49;14.03;;;13.73;;
2622;SDS011;1321;48.690;9.022;2023-03-14T04:54:18;14.27;;;13.87;;
2622;SDS011;1321;48.690;9.022;2023-03-14T04:56:46;14.10;;;13.70;;
2622;SDS011;1321;48.690;9.022;2023-03-14T04:59:15;14.10;;;13.70;;
2622;SDS011;1321;48.690;9.022;2023-03-14T05:01:43;14.00;;;13.60;;
2622;SDS011;1321;48.690;9.022;2023-03-14T05:04:11;13.90;;;13.50;;
2622;SDS011;1321;48.690;9.022;2023-03-14T05:06:39;13.93;;;13.43;;
2622;SDS011;1321;48.690;9.022;2023-03-14T05:09:08;14.27;;;13.77;;
2622;SDS011;1321;48.690;9.022;2023-03-14T05:11:36;13.80;;;13.40;;
2622;SDS011;1321;48.690;9.022;2023-03-14T05:14:04;14.07;;;13.67;;
2622;SDS011;1321;48.690;9.022;2023-03-14T05:16:34;14.27;;;13.80;;
2622;SDS011;1321;48.690;9.022;2023-03-14T05:19:02;14.07;;;13.73;;
2622;SDS011;1321;48.690;9.022;2023-03-14T05:21:30;14.10;;;13.50;;
2622;SDS011;1321;48.690;9.022;2023-03-14T05:23:58;14.00;;;13.43;;
2622;SDS011;1321;48.690;9.022;2023-03-14T05:26:26;14.20;;;13.87;;
2622;SDS011;1321;48.690;9.022;2023-03-14T05:28:54;14.20;;;13.70;;
2622;SDS011;1321;48.690;9.022;2023-03-14T05:31:22;14.97;;;14.27;;
2622;SDS011;1321;48.690;9.022;2023-03-14T05:33:52;13.70;;;13.33;;
2622;SDS011;1321;48.690;9.022;2023-03-14T05:36:20;14.53;;;14.10;;
2622;SDS011;1321;48.690;9.022;2023-03-14T05:38:48;14.83;;;14.13;;
2622;SDS011;1321;48.690;9.022;2023-03-14T05:41:16;14.20;;;13.70;;
2622;SDS011;1321;48.690;9.022;2023-03-14T05:43:44;14.73;;;14.20;;
2622;SDS011;1321;48.690;9.022;2023-03-14T05:46:13;14.20;;;13.80;;
2622;SDS011;1321;48.690;9.022;2023-03-14T05:48:41;14.17;;;13.67;;
2622;SDS011;1321;48.690;9.022;2023-03-14T05:51:10;14.07;;;13.60;;
2622;SDS011;1321;48.690;9.022;2023-03-14T05:53:38;14.27;;;13.87;;
2622;SDS011;1321;48.690;9.022;2023-03-14T05:56:07;14.00;;;13.70;;
2622;SDS011;1321;48.690;9.022;2023-03-14T05:58:36;13.83;;;13.53;;
2622;SDS011;1321;48.690;9.022;2023-03-14T06:01:05;14.50;;;14.10;;
2622;SDS011;1321;48.690;9.022;2023-03-14T06:03:34;14.23;;;13.87;;
2622;SDS011;1321;48.690;9.022;2023-03-14T06:06:02;14.07;;;13.67;;
2622;SDS011;1321;48.690;9.022;2023-03-14T06:08:32;14.20;;;13.80;;
2622;SDS011;1321;48.690;9.022;2023-03-14T06:11:02;13.80;;;13.50;;
2622;SDS011;1321;48.690;9.022;2023-03-14T06:13:31;14.00;;;13.70;;
2622;SDS011;1321;48.690;9.022;2023-03-14T06:15:59;15.40;;;14.40;;
2622;SDS011;1321;48.690;9.022;2023-03-14T06:18:27;14.30;;;13.80;;
2622;SDS011;1321;48.690;9.022;2023-03-14T06:20:55;15.03;;;14.43;;
2622;SDS011;1321;48.690;9.022;2023-03-14T06:23:24;14.63;;;14.30;;
2622;SDS011;1321;48.690;9.022;2023-03-14T06:25:53;14.40;;;13.97;;
2622;SDS011;1321;48.690;9.022;2023-03-14T06:28:22;14.60;;;14.10;;
2622;SDS011;1321;48.690;9.022;2023-03-14T06:30:51;14.10;;;13.80;;
2622;SDS011;1321;48.690;9.022;2023-03-14T06:33:19;14.20;;;13.80;;
2622;SDS011;1321;48.690;9.022;2023-03-14T06:35:47;13.73;;;13.43;;
2622;SDS011;1321;48.690;9.022;2023-03-14T06:38:16;14.57;;;14.27;;
2622;SDS011;1321;48.690;9.022;2023-03-14T06:40:44;14.27;;;13.70;;
2622;SDS011;1321;48.690;9.022;2023-03-14T06:43:13;14.27;;;13.80;;
2622;SDS011;1321;48.690;9.022;2023-03-14T06:45:41;13.73;;;13.43;;
2622;SDS011;1321;48.690;9.022;2023-03-14T06:48:09;14.30;;;14.00;;
2622;SDS011;1321;48.690;9.022;2023-03-14T06:50:38;14.30;;;13.90;;
2622;SDS011;1321;48.690;9.022;2023-03-14T06:53:06;14.00;;;13.70;;
2622;SDS011;1321;48.690;9.022;2023-03-14T06:55:34;14.17;;;13.87;;
2622;SDS011;1321;48.690;9.022;2023-03-14T06:58:02;14.63;;;13.93;;
2622;SDS011;1321;48.690;9.022;2023-03-14T07:00:32;13.80;;;13.50;;
2622;SDS011;1321;48.690;9.022;2023-03-14T07:03:01;14.50;;;14.10;;
2622;SDS011;1321;48.690;9.022;2023-03-14T07:05:29;14.43;;;14.13;;
2622;SDS011;1321;48.690;9.022;2023-03-14T07:07:57;15.00;;;14.40;;
2622;SDS011;1321;48.690;9.022;2023-03-14T07:10:25;14.03;;;13.73;;
2622;SDS011;1321;48.690;9.022;2023-03-14T07:12:53;14.23;;;13.83;;
2622;SDS011;1321;48.690;9.022;2023-03-14T07:15:21;14.27;;;13.67;;
2622;SDS011;1321;48.690;9.022;2023-03-14T07:17:51;13.80;;;13.50;;
2622;SDS011;1321;48.690;9.022;2023-03-14T07:20:19;14.00;;;13.70;;
2622;SDS011;1321;48.690;9.022;2023-03-14T07:22:47;14.50;;;14.00;;
2622;SDS011;1321;48.690;9.022;2023-03-14T07:25:16;14.20;;;13.90;;
2622;SDS011;1321;48.690;9.022;2023-03-14T07:27:44;14.70;;;14.30;;
2622;SDS011;1321;48.690;9.022;2023-03-14T07:30:14;14.67;;;14.30;;
2622;SDS011;1321;48.690;9.022;2023-03-14T07:32:42;14.20;;;13.90;;
2622;SDS011;1321;48.690;9.022;2023-03-14T07:35:11;14.77;;;14.37;;
2622;SDS011;1321;48.690;9.022;2023-03-14T07:37:40;15.13;;;14.37;;
2622;SDS011;1321;48.690;9.022;2023-03-14T07:40:08;14.50;;;14.20;;
2622;SDS011;1321;48.690;9.022;2023-03-14T07:42:41;14.10;;;13.80;;
2622;SDS011;1321;48.690;9.022;2023-03-14T07:45:09;15.00;;;14.60;;
2622;SDS011;1321;48.690;9.022;2023-03-14T07:47:38;14.10;;;13.80;;
2622;SDS011;1321;48.690;9.022;2023-03-14T07:50:07;14.57;;;14.20;;
2622;SDS011;1321;48.690;9.022;2023-03-14T07:52:38;14.77;;;14.47;;
2622;SDS011;1321;48.690;9.022;2023-03-14T07:55:06;14.83;;;14.43;;
2622;SDS011;1321;48.690;9.022;2023-03-14T07:57:35;14.70;;;14.40;;
2622;SDS011;1321;48.690;9.022;2023-03-14T08:00:03;15.10;;;14.70;;
2622;SDS011;1321;48.690;9.022;2023-03-14T08:02:32;14.90;;;14.60;;
2622;SDS011;1321;48.690;9.022;2023-03-14T08:05:02;15.10;;;14.73;;
2622;SDS011;1321;48.690;9.022;2023-03-14T08:07:31;14.57;;;14.17;;
2622;SDS011;1321;48.690;9.022;2023-03-14T08:10:00;14.60;;;14.30;;
2622;SDS011;1321;48.690;9.022;2023-03-14T08:12:28;15.30;;;14.90;;
2622;SDS011;1321;48.690;9.022;2023-03-14T08:14:56;14.73;;;14.33;;
2622;SDS011;1321;48.690;9.022;2023-03-14T08:17:25;14.60;;;14.30;;
2622;SDS011;1321;48.690;9.022;2023-03-14T08:19:54;15.20;;;14.80;;
2622;SDS011;1321;48.690;9.022;2023-03-14T08:22:22;14.90;;;14.60;;
2622;SDS011;1321;48.690;9.022;2023-03-14T08:24:50;15.87;;;15.47;;
2622;SDS011;1321;48.690;9.022;2023-03-14T08:27:20;15.20;;;14.90;;
2622;SDS011;1321;48.690;9.022;2023-03-14T08:29:48;15.33;;;14.73;;
2622;SDS011;1321;48.690;9.022;2023-03-14T08:32:16;14.90;;;14.50;;
2622;SDS011;1321;48.690;9.022;2023-03-14T08:34:46;14.80;;;14.40;;
2622;SDS011;1321;48.690;9.022;2023-03-14T08:37:14;14.10;;;13.80;;
2622;SDS011;1321;48.690;9.022;2023-03-14T08:39:52;14.50;;;14.17;;
2622;SDS011;1321;48.690;9.022;2023-03-14T08:42:22;14.80;;;14.50;;
2622;SDS011;1321;48.690;9.022;2023-03-14T08:44:50;14.40;;;14.10;;
2622;SDS011;1321;48.690;9.022;2023-03-14T08:47:19;14.70;;;14.30;;
2622;SDS011;1321;48.690;9.022;2023-03-14T08:49:47;15.03;;;14.63;;
2622;SDS011;1321;48.690;9.022;2023-03-14T08:52:15;14.77;;;14.40;;
2622;SDS011;1321;48.690;9.022;2023-03-14T08:54:43;15.07;;;14.70;;
2622;SDS011;1321;48.690;9.022;2023-03-14T08:57:12;15.30;;;14.90;;
2622;SDS011;1321;48.690;9.022;2023-03-14T08:59:41;15.03;;;14.60;;
2622;SDS011;1321;48.690;9.022;2023-03-14T09:02:10;14.60;;;14.30;;
2622;SDS011;1321;48.690;9.022;2023-03-14T09:04:39;14.60;;;14.30;;
2622;SDS011;1321;48.690;9.022;2023-03-14T09:07:07;15.20;;;14.70;;
2622;SDS011;1321;48.690;9.022;2023-03-14T09:09:35;14.60;;;14.30;;
2622;SDS011;1321;48.690;9.022;2023-03-14T09:12:04;14.30;;;14.00;;
2622;SDS011;1321;48.690;9.022;2023-03-14T09:14:33;14.70;;;14.40;;
2622;SDS011;1321;48.690;9.022;2023-03-14T09:17:02;15.07;;;14.60;;
2622;SDS011;1321;48.690;9.022;2023-03-14T09:19:31;14.90;;;14.60;;
2622;SDS011;1321;48.690;9.022;2023-03-14T09:21:59;14.70;;;14.40;;
2622;SDS011;1321;48.690;9.022;2023-03-14T09:24:27;14.47;;;14.17;;
2622;SDS011;1321;48.690;9.022;2023-03-14T09:26:55;14.40;;;14.07;;
2622;SDS011;1321;48.690;9.022;2023-03-14T09:29:24;15.37;;;14.97;;
2622;SDS011;1321;48.690;9.022;2023-03-14T09:31:52;14.83;;;14.43;;
2622;SDS011;1321;48.690;9.022;2023-03-14T09:34:22;14.80;;;14.50;;
2622;SDS011;1321;48.690;9.022;2023-03-14T09:36:50;14.90;;;14.50;;
2622;SDS011;1321;48.690;9.022;2023-03-14T09:39:18;15.27;;;14.83;;
2622;SDS011;1321;48.690;9.022;2023-03-14T09:41:46;14.60;;;14.30;;
2622;SDS011;1321;48.690;9.022;2023-03-14T09:44:20;14.40;;;14.10;;
2622;SDS011;1321;48.690;9.022;2023-03-14T09:46:52;15.30;;;14.90;;
2622;SDS011;1321;48.690;9.022;2023-03-14T09:49:25;14.17;;;13.87;;
2622;SDS011;1321;48.690;9.022;2023-03-14T09:51:56;14.80;;;14.50;;
2622;SDS011;1321;48.690;9.022;2023-03-14T09:54:35;14.90;;;14.50;;
2622;SDS011;1321;48.690;9.022;2023-03-14T09:57:05;14.80;;;14.50;;
2622;SDS011;1321;48.690;9.022;2023-03-14T09:59:38;15.10;;;14.70;;
2622;SDS011;1321;48.690;9.022;2023-03-14T10:02:11;14.93;;;14.63;;
2622;SDS011;1321;48.690;9.022;2023-03-14T10:04:45;15.60;;;15.20;;
2622;SDS011;1321;48.690;9.022;2023-03-14T10:07:14;15.70;;;15.40;;
2622;SDS011;1321;48.690;9.022;2023-03-14T10:09:45;16.20;;;15.80;;
2622;SDS011;1321;48.690;9.022;2023-03-14T10:12:16;15.27;;;14.97;;
2622;SDS011;1321;48.690;9.022;2023-03-14T10:14:46;15.10;;;14.80;;
2622;SDS011;1321;48.690;9.022;2023-03-14T10:17:16;15.00;;;14.70;;
2622;SDS011;1321;48.690;9.022;2023-03-14T10:19:53;17.07;;;16.20;;
2622;SDS011;1321;48.690;9.022;2023-03-14T10:22:24;14.60;;;14.30;;
2622;SDS011;1321;48.690;9.022;2023-03-14T10:24:56;14.47;;;14.17;;
2622;SDS011;1321;48.690;9.022;2023-03-14T10:27:27;14.60;;;14.30;;
2622;SDS011;1321;48.690;9.022;2023-03-14T10:29:57;14.80;;;14.40;;
2622;SDS011;1321;48.690;9.022;2023-03-14T10:32:28;14.30;;;14.00;;
2622;SDS011;1321;48.690;9.022;2023-03-14T10:35:05;13.73;;;13.53;;
2622;SDS011;1321;48.690;9.022;2023-03-14T10:37:36;13.90;;;13.70;;
2622;SDS011;1321;48.690;9.022;2023-03-14T10:40:17;14.53;;;14.23;;
2622;SDS011;1321;48.690;9.022;2023-03-14T10:42:46;13.80;;;13.50;;
2622;SDS011;1321;48.690;9.022;2023-03-14T10:45:27;13.53;;;13.23;;
2622;SDS011;1321;48.690;9.022;2023-03-14T10:47:59;13.60;;;13.30;;
2622;SDS011;1321;48.690;9.022;2023-03-14T10:50:36;13.60;;;13.30;;
2622;SDS011;1321;48.690;9.022;2023-03-14T10:53:04;13.70;;;13.40;;
2622;SDS011;1321;48.690;9.022;2023-03-14T10:55:42;13.50;;;13.20;;
2622;SDS011;1321;48.690;9.022;2023-03-14T10:58:22;12.90;;;12.70;;
2622;SDS011;1321;48.690;9.022;2023-03-14T11:00:54;13.40;;;12.90;;
2622;SDS011;1321;48.690;9.022;2023-03-14T11:03:29;13.50;;;13.30;;
2622;SDS011;1321;48.690;9.022;2023-03-14T11:06:04;13.90;;;13.60;;
2622;SDS011;1321;48.690;9.022;2023-03-14T11:08:37;13.43;;;13.23;;
2622;SDS011;1321;48.690;9.022;2023-03-14T11:11:15;13.43;;;13.23;;
2622;SDS011;1321;48.690;9.022;2023-03-14T11:13:51;13.40;;;13.20;;
2622;SDS011;1321;48.690;9.022;2023-03-14T11:16:29;13.83;;;13.50;;
2622;SDS011;1321;48.690;9.022;2023-03-14T11:21:58;13.30;;;13.10;;
2622;SDS011;1321;48.690;9.022;2023-03-14T11:24:37;13.60;;;13.30;;
2622;SDS011;1321;48.690;9.022;2023-03-14T11:27:15;13.63;;;13.33;;
2622;SDS011;1321;48.690;9.022;2023-03-14T11:29:48;13.60;;;13.30;;
2622;SDS011;1321;48.690;9.022;2023-03-14T11:32:25;13.70;;;13.40;;
2622;SDS011;1321;48.690;9.022;2023-03-14T11:35:08;13.97;;;13.67;;
2622;SDS011;1321;48.690;9.022;2023-03-14T11:37:50;14.30;;;14.00;;
2622;SDS011;1321;48.690;9.022;2023-03-14T11:40:22;14.27;;;13.97;;
2622;SDS011;1321;48.690;9.022;2023-03-14T11:42:54;15.00;;;14.60;;
2622;SDS011;1321;48.690;9.022;2023-03-14T11:45:29;14.67;;;14.37;;
2622;SDS011;1321;48.690;9.022;2023-03-14T11:48:09;14.50;;;13.80;;
2622;SDS011;1321;48.690;9.022;2023-03-14T11:50:44;13.80;;;13.50;;
2622;SDS011;1321;48.690;9.022;2023-03-14T11:53:19;13.53;;;13.33;;
2622;SDS011;1321;48.690;9.022;2023-03-14T11:55:52;13.40;;;13.20;;
2622;SDS011;1321;48.690;9.022;2023-03-14T11:58:23;13.30;;;13.00;;
2622;SDS011;1321;48.690;9.022;2023-03-14T12:00:55;13.37;;;13.17;;
2622;SDS011;1321;48.690;9.022;2023-03-14T12:03:26;13.50;;;13.20;;
2622;SDS011;1321;48.690;9.022;2023-03-14T12:06:02;13.20;;;13.00;;
2622;SDS011;1321;48.690;9.022;2023-03-14T12:08:46;13.77;;;13.40;;
2622;SDS011;1321;48.690;9.022;2023-03-14T12:11:18;13.80;;;13.50;;
2622;SDS011;1321;48.690;9.022;2023-03-14T12:13:50;13.80;;;13.50;;
2622;SDS011;1321;48.690;9.022;2023-03-14T12:16:23;14.00;;;13.70;;
2622;SDS011;1321;48.690;9.022;2023-03-14T12:22:08;14.07;;;13.77;;
2622;SDS011;1321;48.690;9.022;2023-03-14T12:24:54;13.77;;;13.43;;
2622;SDS011;1321;48.690;9.022;2023-03-14T12:27:40;13.33;;;13.03;;
2622;SDS011;1321;48.690;9.022;2023-03-14T12:30:27;12.87;;;12.67;;
2622;SDS011;1321;48.690;9.022;2023-03-14T12:36:00;14.17;;;13.57;;
2622;SDS011;1321;48.690;9.022;2023-03-14T12:38:43;13.03;;;12.83;;
2622;SDS011;1321;48.690;9.022;2023-03-14T12:41:28;12.60;;;12.40;;
2622;SDS011;1321;48.690;9.022;2023-03-14T12:50:13;12.77;;;12.57;;
2622;SDS011;1321;48.690;9.022;2023-03-14T12:52:49;12.60;;;12.40;;
2622;SDS011;1321;48.690;9.022;2023-03-14T12:55:33;12.10;;;11.90;;
2622;SDS011;1321;48.690;9.022;2023-03-14T12:58:10;11.20;;;10.90;;
2622;SDS011;1321;48.690;9.022;2023-03-14T13:00:44;10.70;;;10.40;;
2622;SDS011;1321;48.690;9.022;2023-03-14T13:03:13;10.83;;;10.63;;
2622;SDS011;1321;48.690;9.022;2023-03-14T13:05:52;10.50;;;10.10;;
2622;SDS011;1321;48.690;9.022;2023-03-14T13:11:09;10.93;;;10.63;;
2622;SDS011;1321;48.690;9.022;2023-03-14T13:13:46;11.27;;;10.97;;
2622;SDS011;1321;48.690;9.022;2023-03-14T13:16:18;10.80;;;10.53;;
2622;SDS011;1321;48.690;9.022;2023-03-14T13:18:48;10.60;;;10.40;;
2622;SDS011;1321;48.690;9.022;2023-03-14T13:21:18;9.93;;;9.70;;
2622;SDS011;1321;48.690;9.022;2023-03-14T13:23:56;9.87;;;9.67;;
2622;SDS011;1321;48.690;9.022;2023-03-14T13:26:31;9.83;;;9.63;;
2622;SDS011;1321;48.690;9.022;2023-03-14T13:29:09;8.93;;;8.83;;
2622;SDS011;1321;48.690;9.022;2023-03-14T13:31:43;9.30;;;9.10;;
2622;SDS011;1321;48.690;9.022;2023-03-14T13:34:12;9.00;;;8.80;;
2622;SDS011;1321;48.690;9.022;2023-03-14T13:36:40;9.80;;;9.50;;
2622;SDS011;1321;48.690;9.022;2023-03-14T13:39:10;8.23;;;8.13;;
2622;SDS011;1321;48.690;9.022;2023-03-14T13:41:41;8.37;;;8.07;;
2622;SDS011;1321;48.690;9.022;2023-03-14T13:44:15;7.83;;;7.73;;
2622;SDS011;1321;48.690;9.022;2023-03-14T13:46:45;8.70;;;8.40;;
2622;SDS011;1321;48.690;9.022;2023-03-14T13:49:16;8.00;;;7.70;;
2622;SDS011;1321;48.690;9.022;2023-03-14T13:51:50;7.83;;;7.53;;
2622;SDS011;1321;48.690;9.022;2023-03-14T13:54:18;7.80;;;7.50;;
2622;SDS011;1321;48.690;9.022;2023-03-14T13:56:47;7.60;;;7.30;;
2622;SDS011;1321;48.690;9.022;2023-03-14T13:59:28;8.30;;;7.53;;
2622;SDS011;1321;48.690;9.022;2023-03-14T14:01:57;7.23;;;7.03;;
2622;SDS011;1321;48.690;9.022;2023-03-14T14:04:27;6.87;;;6.57;;
2622;SDS011;1321;48.690;9.022;2023-03-14T14:07:00;6.50;;;6.30;;
2622;SDS011;1321;48.690;9.022;2023-03-14T14:09:35;6.60;;;6.40;;
2622;SDS011;1321;48.690;9.022;2023-03-14T14:12:07;6.90;;;6.50;;
2622;SDS011;1321;48.690;9.022;2023-03-14T14:14:44;6.10;;;5.90;;
2622;SDS011;1321;48.690;9.022;2023-03-14T14:17:15;6.33;;;6.10;;
2622;SDS011;1321;48.690;9.022;2023-03-14T14:19:46;6.00;;;5.80;;
2622;SDS011;1321;48.690;9.022;2023-03-14T14:22:15;5.80;;;5.50;;
2622;SDS011;1321;48.690;9.022;2023-03-14T14:24:44;6.40;;;5.83;;
2622;SDS011;1321;48.690;9.022;2023-03-14T14:27:14;5.90;;;5.70;;
2622;SDS011;1321;48.690;9.022;2023-03-14T14:29:56;6.07;;;5.97;;
2622;SDS011;1321;48.690;9.022;2023-03-14T14:32:26;6.10;;;5.90;;
2622;SDS011;1321;48.690;9.022;2023-03-14T14:35:01;6.20;;;6.00;;
2622;SDS011;1321;48.690;9.022;2023-03-14T14:37:31;5.97;;;5.80;;
2622;SDS011;1321;48.690;9.022;2023-03-14T14:40:06;6.63;;;6.43;;
2622;SDS011;1321;48.690;9.022;2023-03-14T14:42:39;6.50;;;6.30;;
2622;SDS011;1321;48.690;9.022;2023-03-14T14:45:12;6.03;;;5.83;;
2622;SDS011;1321;48.690;9.022;2023-03-14T14:50:27;5.77;;;5.57;;
2622;SDS011;1321;48.690;9.022;2023-03-14T14:52:57;6.50;;;6.00;;
2622;SDS011;1321;48.690;9.022;2023-03-14T14:55:29;5.60;;;5.30;;
2622;SDS011;1321;48.690;9.022;2023-03-14T14:58:10;6.00;;;5.80;;
2622;SDS011;1321;48.690;9.022;2023-03-14T15:00:48;6.07;;;5.87;;
2622;SDS011;1321;48.690;9.022;2023-03-14T15:03:19;5.77;;;5.50;;
2622;SDS011;1321;48.690;9.022;2023-03-14T15:05:47;5.83;;;5.63;;
2622;SDS011;1321;48.690;9.022;2023-03-14T15:08:15;4.70;;;4.50;;
2622;SDS011;1321;48.690;9.022;2023-03-14T15:10:44;4.80;;;4.50;;
2622;SDS011;1321;48.690;9.022;2023-03-14T15:13:12;4.60;;;4.43;;
2622;SDS011;1321;48.690;9.022;2023-03-14T15:15:40;5.13;;;4.83;;
2622;SDS011;1321;48.690;9.022;2023-03-14T15:18:11;4.87;;;4.77;;
2622;SDS011;1321;48.690;9.022;2023-03-14T15:20:42;4.50;;;4.40;;
2622;SDS011;1321;48.690;9.022;2023-03-14T15:23:10;4.73;;;4.43;;
2622;SDS011;1321;48.690;9.022;2023-03-14T15:25:39;4.67;;;4.37;;
2622;SDS011;1321;48.690;9.022;2023-03-14T15:28:22;4.50;;;4.30;;
2622;SDS011;1321;48.690;9.022;2023-03-14T15:30:53;4.70;;;4.50;;
2622;SDS011;1321;48.690;9.022;2023-03-14T15:33:22;4.60;;;4.50;;